Time;durP1;ratioP1;P1;durP2;ratioP2;P2;SDS_P1;SDS_P2;PMS_P1;PMS_P2;Temp;Humidity;BMP_temperature;BMP_pressure;BME280_temperature;BME280_humidity;BME280_pressure;Samples;Min_cycle;Max_cycle;Signal;HPM_P1;HPM_P2
2021/08/27 00:02:00;;;;;;;;;;;;;;;21.63;55.09;100637.44;5053165;28;20111;-72
2021/08/27 00:04:28;;;;;;;;;;;;;;;21.63;55.17;100635.63;5050606;28;19935;-72
2021/08/27 00:06:56;;;;;;;;;;;;;;;21.64;54.97;100648.13;5049360;28;20001;-72
2021/08/27 00:09:24;;;;;;;;;;;;;;;21.64;55.17;100642.75;5053322;28;20048;-72
2021/08/27 00:11:52;;;;;;;;;;;;;;;21.64;55.16;100640.06;5052611;28;20031;-72
2021/08/27 00:14:21;;;;;;;;;;;;;;;21.64;55.28;100648.13;5052402;28;20024;-72
2021/08/27 00:16:49;;;;;;;;;;;;;;;21.64;55.25;100649.94;5053064;28;19932;-72
2021/08/27 00:19:17;;;;;;;;;;;;;;;21.64;55.23;100653.50;5050603;28;20608;-72
2021/08/27 00:21:46;;;;;;;;;;;;;;;21.64;55.50;100652.63;5050149;28;19924;-72
2021/08/27 00:24:14;;;;;;;;;;;;;;;21.63;55.15;100656.28;5055554;28;19989;-72
2021/08/27 00:26:42;;;;;;;;;;;;;;;21.59;54.98;100653.00;5056863;28;19933;-72
2021/08/27 00:29:09;;;;;;;;;;;;;;;21.60;55.01;100653.84;5057368;28;19971;-72
2021/08/27 00:31:39;;;;;;;;;;;;;;;21.60;55.05;100654.69;5054198;28;20407;-72
2021/08/27 00:34:06;;;;;;;;;;;;;;;21.60;55.19;100660.06;5049642;28;20059;-72
2021/08/27 00:36:34;;;;;;;;;;;;;;;21.61;54.89;100658.25;5053949;28;19994;-72
2021/08/27 00:39:02;;;;;;;;;;;;;;;21.62;54.91;100666.22;5057116;28;20007;-72
2021/08/27 00:41:30;;;;;;;;;;;;;;;21.62;55.17;100674.28;5057757;28;20561;-72
2021/08/27 00:43:58;;;;;;;;;;;;;;;21.63;54.80;100672.44;5058628;28;20508;-72
2021/08/27 00:46:26;;;;;;;;;;;;;;;21.63;54.80;100667.06;5052268;28;20015;-72
2021/08/27 00:48:55;;;;;;;;;;;;;;;21.62;55.00;100668.06;5048976;28;20667;-72
2021/08/27 00:51:23;;;;;;;;;;;;;;;21.64;55.00;100671.47;5056928;28;19929;-72
2021/08/27 00:53:51;;;;;;;;;;;;;;;21.63;55.21;100672.44;5056596;28;19936;-72
2021/08/27 00:56:19;;;;;;;;;;;;;;;21.64;55.33;100676.84;5055017;28;19932;-72
2021/08/27 00:58:47;;;;;;;;;;;;;;;21.62;54.94;100676.97;5056771;28;19928;-72
2021/08/27 01:01:15;;;;;;;;;;;;;;;21.60;55.11;100681.59;5052884;28;19959;-72
2021/08/27 01:03:43;;;;;;;;;;;;;;;21.60;54.90;100670.84;5052751;28;19928;-72
2021/08/27 01:06:18;;;;;;;;;;;;;;;21.60;54.85;100681.59;5055352;28;19928;-72
2021/08/27 01:08:52;;;;;;;;;;;;;;;21.61;55.18;100672.56;5056322;28;19943;-72
2021/08/27 01:11:25;;;;;;;;;;;;;;;21.62;55.09;100676.97;5056955;28;19936;-73
2021/08/27 01:13:55;;;;;;;;;;;;;;;21.63;54.85;100676.00;5054686;28;20324;-73
2021/08/27 01:16:24;;;;;;;;;;;;;;;21.62;54.91;100674.28;5048769;28;19940;-73
2021/08/27 01:18:58;;;;;;;;;;;;;;;21.63;54.98;100678.69;5052265;28;20290;-73
2021/08/27 01:21:38;;;;;;;;;;;;;;;21.63;54.57;100683.19;5058489;28;19977;-73
2021/08/27 01:24:08;;;;;;;;;;;;;;;21.63;54.94;100686.78;5054898;28;19974;-73
2021/08/27 01:26:37;;;;;;;;;;;;;;;21.63;54.57;100686.78;5054317;28;19959;-73
2021/08/27 01:29:06;;;;;;;;;;;;;;;21.63;54.83;100692.16;5051685;28;20692;-73
2021/08/27 01:31:36;;;;;;;;;;;;;;;21.63;54.87;100686.78;5052493;28;20467;-72
2021/08/27 01:34:17;;;;;;;;;;;;;;;21.61;54.82;100696.78;5056104;28;19939;-72
2021/08/27 01:36:47;;;;;;;;;;;;;;;21.60;54.70;100699.59;5055880;28;20455;-72
2021/08/27 01:39:17;;;;;;;;;;;;;;;21.60;54.78;100700.44;5054541;28;20400;-73
2021/08/27 01:41:50;;;;;;;;;;;;;;;21.60;54.92;100704.97;5056189;28;20025;-72
2021/08/27 01:44:20;;;;;;;;;;;;;;;21.61;54.62;100714.78;5046907;28;19929;-73
2021/08/27 01:46:49;;;;;;;;;;;;;;;21.62;54.89;100713.81;5052226;28;19982;-73
2021/08/27 01:49:17;;;;;;;;;;;;;;;21.63;54.71;100726.28;5055975;28;20002;-72
2021/08/27 01:51:48;;;;;;;;;;;;;;;21.63;54.63;100720.88;5057168;28;19981;-72
2021/08/27 01:54:16;;;;;;;;;;;;;;;21.62;54.60;100720.03;5052687;28;19925;-72
2021/08/27 01:56:45;;;;;;;;;;;;;;;21.63;54.46;100726.28;5050440;28;21402;-72
2021/08/27 01:59:13;;;;;;;;;;;;;;;21.64;54.36;100728.88;5050072;28;19972;-72
2021/08/27 02:01:41;;;;;;;;;;;;;;;21.63;54.81;100735.22;5054197;28;20343;-72
2021/08/27 02:04:11;;;;;;;;;;;;;;;21.63;54.64;100732.53;5053665;28;19935;-72
2021/08/27 02:06:39;;;;;;;;;;;;;;;21.61;54.72;100728.22;5054249;28;19932;-72
2021/08/27 02:09:09;;;;;;;;;;;;;;;21.61;54.66;100730.94;5054957;28;19932;-72
2021/08/27 02:11:38;;;;;;;;;;;;;;;21.62;54.83;100732.66;5050522;28;19989;-72
2021/08/27 02:14:07;;;;;;;;;;;;;;;21.62;54.86;100736.19;5049978;28;19932;-73
2021/08/27 02:16:35;;;;;;;;;;;;;;;21.62;54.89;100732.66;5054598;28;19932;-73
2021/08/27 02:19:04;;;;;;;;;;;;;;;21.62;54.70;100740.72;5055077;28;20419;-72
2021/08/27 02:21:33;;;;;;;;;;;;;;;21.61;54.61;100734.47;5056147;28;20254;-72
2021/08/27 02:24:03;;;;;;;;;;;;;;;21.61;54.60;100742.53;5055337;28;19963;-72
2021/08/27 02:26:35;;;;;;;;;;;;;;;21.63;54.81;100758.56;5049095;28;20883;-73
2021/08/27 02:29:03;;;;;;;;;;;;;;;21.61;54.75;100750.63;5053432;28;20007;-73
2021/08/27 02:31:32;;;;;;;;;;;;;;;21.62;54.95;100748.81;5054218;28;20059;-72
2021/08/27 02:34:00;;;;;;;;;;;;;;;21.60;54.57;100754.28;5053717;28;19932;-73
2021/08/27 02:36:29;;;;;;;;;;;;;;;21.58;54.71;100755.34;5053543;28;19986;-72
2021/08/27 02:38:58;;;;;;;;;;;;;;;21.59;54.78;100749.88;5049609;28;20027;-73
2021/08/27 02:41:26;;;;;;;;;;;;;;;21.59;54.85;100757.97;5049949;28;19928;-73
2021/08/27 02:43:55;;;;;;;;;;;;;;;21.60;54.70;100761.50;5055830;28;20334;-73
2021/08/27 02:46:23;;;;;;;;;;;;;;;21.60;54.71;100754.28;5052251;28;20110;-72
2021/08/27 02:48:51;;;;;;;;;;;;;;;21.60;54.54;100765.03;5052768;28;20817;-73
2021/08/27 02:51:23;;;;;;;;;;;;;;;21.61;54.52;100764.06;5055951;28;19964;-73
2021/08/27 02:53:53;;;;;;;;;;;;;;;21.60;54.25;100761.50;5049553;28;19932;-72
2021/08/27 02:56:23;;;;;;;;;;;;;;;21.61;54.34;100774.00;5048494;28;19925;-73
2021/08/27 02:58:52;;;;;;;;;;;;;;;21.60;54.23;100769.56;5052692;28;20450;-72
2021/08/27 03:01:24;;;;;;;;;;;;;;;21.60;54.35;100770.41;5053818;28;19932;-73
2021/08/27 03:04:01;;;;;;;;;;;;;;;21.60;54.15;100778.50;5052039;28;19932;-72
2021/08/27 03:06:31;;;;;;;;;;;;;;;21.60;54.26;100775.81;5050947;28;20301;-73
2021/08/27 03:09:02;;;;;;;;;;;;;;;21.59;54.64;100787.56;5047660;28;19932;-73
2021/08/27 03:11:32;;;;;;;;;;;;;;;21.58;54.54;100793.03;5051895;28;20189;-73
2021/08/27 03:14:02;;;;;;;;;;;;;;;21.58;54.58;100798.41;5054814;28;20509;-73
2021/08/27 03:16:32;;;;;;;;;;;;;;;21.57;54.55;100792.19;5050986;28;19928;-73
2021/08/27 03:19:01;;;;;;;;;;;;;;;21.59;54.20;100800.16;5052634;28;20463;-72
2021/08/27 03:21:31;;;;;;;;;;;;;;;21.59;54.20;100797.44;5051663;28;19985;-73
2021/08/27 03:24:02;;;;;;;;;;;;;;;21.59;54.36;100794.75;5049302;28;20015;-72
2021/08/27 03:26:32;;;;;;;;;;;;;;;21.59;54.20;100797.44;5054280;28;20439;-73
2021/08/27 03:29:02;;;;;;;;;;;;;;;21.60;54.20;100800.03;5054684;28;19968;-72
2021/08/27 03:31:32;;;;;;;;;;;;;;;21.59;54.63;100803.72;5053719;28;19954;-72
2021/08/27 03:34:00;;;;;;;;;;;;;;;21.59;54.13;100803.72;5053678;28;19933;-72
2021/08/27 03:36:29;;;;;;;;;;;;;;;21.58;54.46;100804.69;5045944;28;19990;-73
2021/08/27 03:38:58;;;;;;;;;;;;;;;21.58;54.04;100810.06;5051754;28;20601;-72
2021/08/27 03:41:28;;;;;;;;;;;;;;;21.58;54.54;100804.69;5053598;28;20632;-72
2021/08/27 03:43:56;;;;;;;;;;;;;;;21.58;54.22;100810.06;5052838;28;19932;-72
2021/08/27 03:46:25;;;;;;;;;;;;;;;21.57;54.83;100815.56;5051564;28;19955;-73
2021/08/27 03:48:55;;;;;;;;;;;;;;;21.55;54.50;100818.34;5050308;28;19985;-73
2021/08/27 03:51:23;;;;;;;;;;;;;;;21.55;54.47;100829.97;5049128;28;20456;-73
2021/08/27 03:54:14;;;;;;;;;;;;;;;21.55;54.21;100831.78;5052700;28;19976;-73
2021/08/27 03:56:45;;;;;;;;;;;;;;;21.58;54.30;100836.09;5050983;28;20019;-72
2021/08/27 03:59:13;;;;;;;;;;;;;;;21.57;54.00;100831.72;5055274;28;19956;-73
2021/08/27 04:01:41;;;;;;;;;;;;;;;21.55;54.15;100829.97;5057458;28;20030;-73
2021/08/27 04:04:16;;;;;;;;;;;;;;;21.55;54.20;100840.75;5053143;28;19940;-73
2021/08/27 04:06:52;;;;;;;;;;;;;;;21.57;54.23;100843.31;5052787;28;19932;-72
2021/08/27 04:09:20;;;;;;;;;;;;;;;21.57;54.35;100851.41;5056756;28;19956;-72
2021/08/27 04:11:47;;;;;;;;;;;;;;;21.57;54.20;100843.31;5057512;28;19967;-72
2021/08/27 04:14:16;;;;;;;;;;;;;;;21.56;54.21;100852.38;5053786;28;20401;-73
2021/08/27 04:16:43;;;;;;;;;;;;;;;21.56;54.16;100852.38;5051029;28;19964;-73
2021/08/27 04:19:13;;;;;;;;;;;;;;;21.57;54.38;100855.94;5045832;28;21535;-73
2021/08/27 04:21:42;;;;;;;;;;;;;;;21.54;54.79;100855.16;5058227;28;19940;-73
2021/08/27 04:24:10;;;;;;;;;;;;;;;21.54;54.38;100860.56;5057663;28;21458;-73
2021/08/27 04:26:39;;;;;;;;;;;;;;;21.54;54.41;100868.63;5055017;28;19936;-73
2021/08/27 04:29:10;;;;;;;;;;;;;;;21.55;53.99;100861.41;5056903;28;19932;-72
2021/08/27 04:31:39;;;;;;;;;;;;;;;21.56;54.07;100865.81;5054613;28;19936;-72
2021/08/27 04:34:07;;;;;;;;;;;;;;;21.58;53.96;100877.34;5050832;28;19932;-72
2021/08/27 04:36:36;;;;;;;;;;;;;;;21.58;54.17;100879.16;5053696;28;20533;-72
2021/08/27 04:39:04;;;;;;;;;;;;;;;21.58;54.11;100879.16;5049658;28;20304;-72
2021/08/27 04:41:32;;;;;;;;;;;;;;;21.58;54.13;100888.13;5050876;28;20660;-73
2021/08/27 04:44:00;;;;;;;;;;;;;;;21.57;54.45;100878.31;5051687;28;20253;-71
2021/08/27 04:46:27;;;;;;;;;;;;;;;21.58;53.85;100887.25;5043112;28;19936;-73
2021/08/27 04:48:55;;;;;;;;;;;;;;;21.59;54.02;100883.56;5048107;28;20484;-72
2021/08/27 04:51:23;;;;;;;;;;;;;;;21.60;54.12;100885.31;5051921;28;19925;-73
2021/08/27 04:53:53;;;;;;;;;;;;;;;21.61;54.74;100879.81;5048273;28;19935;-73
2021/08/27 04:56:21;;;;;;;;;;;;;;;21.62;55.54;100886.06;5052857;28;19947;-73
2021/08/27 04:58:49;;;;;;;;;;;;;;;21.63;55.91;100898.53;5048175;28;19964;-73
2021/08/27 05:01:18;;;;;;;;;;;;;;;21.63;55.75;100896.72;5045358;28;19940;-72
2021/08/27 05:03:46;;;;;;;;;;;;;;;21.64;55.43;100898.44;5048917;28;19932;-79
2021/08/27 05:06:15;;;;;;;;;;;;;;;21.65;56.33;100897.47;5053462;28;19928;-72
2021/08/27 05:08:43;;;;;;;;;;;;;;;21.66;56.73;100898.34;5050402;28;19928;-71
2021/08/27 05:11:12;;;;;;;;;;;;;;;21.71;56.65;100898.88;5053396;28;19935;-76
2021/08/27 05:13:40;;;;;;;;;;;;;;;21.77;57.02;100905.63;5046166;28;20057;-71
2021/08/27 05:16:08;;;;;;;;;;;;;;;21.80;56.72;100903.59;5050797;28;19939;-71
2021/08/27 05:18:36;;;;;;;;;;;;;;;21.79;56.51;100899.16;5049427;28;20677;-72
2021/08/27 05:21:04;;;;;;;;;;;;;;;21.79;56.58;100901.00;5047368;28;19928;-73
2021/08/27 05:23:32;;;;;;;;;;;;;;;21.84;58.10;100899.69;5042972;28;20040;-72
2021/08/27 05:26:00;;;;;;;;;;;;;;;21.85;57.84;100906.81;5045351;28;19936;-76
2021/08/27 05:28:29;;;;;;;;;;;;;;;21.87;59.18;100904.84;5046728;28;19936;-74
2021/08/27 05:30:57;;;;;;;;;;;;;;;21.91;59.82;100915.41;5044347;28;19939;-74
2021/08/27 05:33:25;;;;;;;;;;;;;;;21.92;58.68;100911.72;5046441;28;20642;-74
2021/08/27 05:35:53;;;;;;;;;;;;;;;21.93;61.03;100918.84;5047636;28;19939;-74
2021/08/27 05:38:21;;;;;;;;;;;;;;;21.94;61.27;100924.09;5054985;28;20366;-74
2021/08/27 05:40:49;;;;;;;;;;;;;;;22.00;62.33;100922.81;5046593;28;21446;-74
2021/08/27 05:43:16;;;;;;;;;;;;;;;22.06;61.48;100927.75;5048562;28;20006;-76
2021/08/27 05:45:47;;;;;;;;;;;;;;;22.10;61.12;100933.78;5051747;28;19928;-74
2021/08/27 05:48:15;;;;;;;;;;;;;;;22.14;60.44;100932.56;5054428;28;20058;-76
2021/08/27 05:50:43;;;;;;;;;;;;;;;22.18;62.52;100932.25;5052566;28;21188;-71
2021/08/27 05:53:11;;;;;;;;;;;;;;;22.23;61.36;100931.88;5054234;28;20061;-73
2021/08/27 05:55:39;;;;;;;;;;;;;;;19.77;65.54;100934.19;5052983;28;19932;-74
2021/08/27 05:58:07;;;;;;;;;;;;;;;19.73;64.91;100931.69;5049897;28;21032;-74
2021/08/27 06:00:35;;;;;;;;;;;;;;;19.49;63.95;100939.47;5053063;28;19940;-72
2021/08/27 06:03:05;;;;;;;;;;;;;;;18.91;60.08;100943.84;5052015;28;19956;-75
2021/08/27 06:05:33;;;;;;;;;;;;;;;19.44;56.73;100943.41;5048212;28;19928;-73
2021/08/27 06:08:01;;;;;;;;;;;;;;;19.40;54.52;100940.88;5052706;28;19940;-75
2021/08/27 06:10:29;;;;;;;;;;;;;;;19.15;53.67;100949.56;5044236;28;19955;-77
2021/08/27 06:12:57;;;;;;;;;;;;;;;19.05;53.49;100956.44;5045601;28;19964;-73
2021/08/27 06:15:25;;;;;;;;;;;;;;;18.91;53.17;100963.50;5060958;28;19932;-74
2021/08/27 06:25:25;;;;;;;;;;;;;;;18.71;51.44;100970.00;5037391;28;20808;-73
2021/08/27 06:36:01;;;;;;;;;;;;;;;20.54;52.43;100981.16;4903691;29;20006;-76
2021/08/27 06:38:29;;;;;;;;;;;;;;;20.81;51.67;100984.84;4900664;28;19937;-77
2021/08/27 06:41:03;;;;;;;;;;;;;;;20.98;51.82;100981.88;4957892;28;19985;-77
2021/08/27 06:43:37;;;;;;;;;;;;;;;21.08;51.89;100981.25;4970763;28;20009;-76
2021/08/27 06:46:06;;;;;;;;;;;;;;;21.13;52.30;100974.63;4967944;28;21090;-76
2021/08/27 06:48:38;;;;;;;;;;;;;;;21.17;52.18;100984.19;4968746;28;19932;-76
2021/08/27 06:51:06;;;;;;;;;;;;;;;21.17;51.88;100989.56;4966933;28;20334;-75
2021/08/27 06:53:35;;;;;;;;;;;;;;;20.10;52.21;100992.97;4962082;28;20512;-76
2021/08/27 06:56:04;;;;;;;;;;;;;;;20.56;54.54;100991.81;4969994;28;19937;-75
2021/08/27 06:58:32;;;;;;;;;;;;;;;20.89;54.00;100990.56;4970359;28;19934;-76
2021/08/27 07:01:04;;;;;;;;;;;;;;;21.05;54.09;100991.28;4971280;28;19941;-76
2021/08/27 07:03:32;;;;;;;;;;;;;;;21.12;54.37;100997.09;4970060;28;20054;-76
2021/08/27 07:06:00;;;;;;;;;;;;;;;20.87;52.29;100998.75;4966547;28;20023;-76
2021/08/27 07:08:27;;;;;;;;;;;;;;;19.94;51.93;100994.91;4962393;28;19933;-75
2021/08/27 07:10:55;;;;;;;;;;;;;;;20.18;53.22;100998.69;4972115;28;19996;-75
2021/08/27 07:13:25;;;;;;;;;;;;;;;20.71;55.30;100995.34;5034774;28;19929;-76
2021/08/27 07:15:55;;;;;;;;;;;;;;;20.98;54.14;100998.00;5050234;28;19932;-76
2021/08/27 07:18:24;;;;;;;;;;;;;;;21.12;53.56;100993.56;5050680;28;19932;-76
2021/08/27 07:20:51;;;;;;;;;;;;;;;20.97;51.86;100990.94;5045992;28;20085;-76
2021/08/27 07:23:19;;;;;;;;;;;;;;;20.24;53.82;100997.47;5044998;28;19938;-75
2021/08/27 07:25:47;;;;;;;;;;;;;;;20.44;54.98;101000.69;5052356;28;19972;-76
2021/08/27 07:28:15;;;;;;;;;;;;;;;20.85;54.34;101002.50;5050031;28;19932;-76
2021/08/27 07:30:45;;;;;;;;;;;;;;;21.06;53.77;101006.44;5052100;28;19946;-76
2021/08/27 07:33:12;;;;;;;;;;;;;;;21.18;54.05;101004.75;5045283;28;19940;-76
2021/08/27 07:35:40;;;;;;;;;;;;;;;20.87;50.76;101009.50;5042398;28;20027;-76
2021/08/27 07:38:08;;;;;;;;;;;;;;;19.92;51.23;101010.25;5053986;28;19932;-76
2021/08/27 07:40:42;;;;;;;;;;;;;;;20.43;53.14;101012.38;5055666;28;19971;-76
2021/08/27 07:43:10;;;;;;;;;;;;;;;20.99;53.84;101012.34;5052206;28;19939;-76
2021/08/27 07:45:41;;;;;;;;;;;;;;;21.18;53.14;101018.19;5051545;28;20740;-76
2021/08/27 07:48:11;;;;;;;;;;;;;;;21.30;52.97;101015.63;5049976;28;19931;-76
2021/08/27 07:50:41;;;;;;;;;;;;;;;;;;5049620;28;20530;-75
2021/08/27 07:53:09;;;;;;;;;;;;;;;20.29;51.69;101026.69;5053221;28;19932;-76
2021/08/27 07:55:42;;;;;;;;;;;;;;;20.21;52.67;101029.88;5050983;28;19929;-76
2021/08/27 07:58:10;;;;;;;;;;;;;;;20.82;54.33;101030.44;5052052;28;20525;-77
2021/08/27 08:00:41;;;;;;;;;;;;;;;21.19;54.51;101027.97;5048955;28;20026;-76
2021/08/27 08:03:11;;;;;;;;;;;;;;;21.39;52.05;101025.75;5042307;28;19925;-76
2021/08/27 08:05:43;;;;;;;;;;;;;;;21.33;52.23;101023.50;5044448;28;19932;-76
2021/08/27 08:08:11;;;;;;;;;;;;;;;20.33;53.32;101038.97;5049370;28;19932;-76
2021/08/27 08:10:40;;;;;;;;;;;;;;;20.27;54.15;101047.44;5050272;28;19975;-75
2021/08/27 08:13:08;;;;;;;;;;;;;;;20.77;54.29;101043.31;5050989;28;19940;-76
2021/08/27 08:15:42;;;;;;;;;;;;;;;21.01;53.31;101045.34;5045262;28;19964;-76
2021/08/27 08:18:12;;;;;;;;;;;;;;;21.13;52.78;101039.16;5047694;28;19928;-76
2021/08/27 08:20:43;;;;;;;;;;;;;;;21.29;52.69;101038.97;5053728;28;19943;-76
2021/08/27 08:23:12;;;;;;;;;;;;;;;20.49;50.99;101050.47;5053230;28;19933;-76
2021/08/27 08:25:41;;;;;;;;;;;;;;;20.27;53.73;101052.81;5052583;28;19933;-74
2021/08/27 08:28:39;;;;;;;;;;;;;;;21.00;52.70;101049.00;5044691;28;20577;-74
2021/08/27 08:31:10;;;;;;;;;;;;;;;21.39;52.48;101064.31;5039010;28;19933;-75
2021/08/27 08:33:40;;;;;;;;;;;;;;;21.52;52.37;101061.63;5042878;28;19934;-77
2021/08/27 08:36:09;;;;;;;;;;;;;;;21.65;51.72;101060.81;5048529;28;19928;-73
2021/08/27 08:38:37;;;;;;;;;;;;;;;20.60;50.11;101062.34;5047791;28;19928;-75
2021/08/27 08:41:06;;;;;;;;;;;;;;;20.21;50.75;101068.34;5048314;28;20482;-75
2021/08/27 08:43:34;;;;;;;;;;;;;;;20.93;51.47;101067.38;5048076;28;19986;-75
2021/08/27 08:46:02;;;;;;;;;;;;;;;21.32;51.46;101079.13;5044192;28;20527;-75
2021/08/27 08:48:30;;;;;;;;;;;;;;;21.53;51.24;101076.78;5054353;28;20059;-75
2021/08/27 08:51:02;;;;;;;;;;;;;;;21.64;51.22;101070.72;5057928;28;19931;-75
2021/08/27 08:53:34;;;;;;;;;;;;;;;21.23;52.31;101080.63;5057373;28;19932;-76
2021/08/27 08:56:03;;;;;;;;;;;;;;;20.63;52.94;101072.91;5056234;28;19932;-74
2021/08/27 08:58:33;;;;;;;;;;;;;;;20.13;51.79;101077.84;5058840;28;19939;-74
2021/08/27 09:01:01;;;;;;;;;;;;;;;20.87;53.37;101082.09;5048054;28;19941;-75
2021/08/27 09:03:30;;;;;;;;;;;;;;;21.31;51.69;101084.63;5053399;28;20011;-76
2021/08/27 09:06:00;;;;;;;;;;;;;;;21.39;51.75;101093.00;5053615;28;19994;-75
2021/08/27 09:08:32;;;;;;;;;;;;;;;21.34;51.98;101092.47;5054204;28;19935;-76
2021/08/27 09:11:01;;;;;;;;;;;;;;;20.90;50.20;101089.94;5053555;28;19936;-76
2021/08/27 09:13:32;;;;;;;;;;;;;;;20.27;52.33;101096.63;5050590;28;20035;-76
2021/08/27 09:16:04;;;;;;;;;;;;;;;20.17;53.73;101104.44;5050764;28;19939;-76
2021/08/27 09:18:36;;;;;;;;;;;;;;;20.06;54.16;101101.53;5051448;28;20399;-76
2021/08/27 09:24:18;;;;;;;;;;;;;;;20.49;52.15;101108.72;5119403;27;20147;-67
2021/08/27 09:26:47;;;;;;;;;;;;;;;21.07;51.79;101109.50;5122129;28;19927;-70
2021/08/27 09:29:30;;;;;;;;;;;;;;;21.26;51.21;101108.28;5113762;27;19932;-65
2021/08/27 09:31:58;;;;;;;;;;;;;;;21.50;50.92;101109.31;5121871;27;20041;-66
2021/08/27 09:34:26;;;;;;;;;;;;;;;20.69;49.93;101110.13;5117376;27;19949;-68
2021/08/27 09:36:56;;;;;;;;;;;;;;;20.14;50.28;101117.19;5119183;28;19935;-67
2021/08/27 09:39:33;;;;;;;;;;;;;;;20.19;51.56;101117.75;5116812;28;20095;-67
2021/08/27 09:42:02;;;;;;;;;;;;;;;20.21;51.79;101122.06;5118320;27;20269;-66
2021/08/27 09:44:30;;;;;;;;;;;;;;;20.14;51.33;101120.72;5121160;28;19923;-66
2021/08/27 09:47:06;;;;;;;;;;;;;;;20.35;52.08;101121.19;5123374;28;19967;-65
2021/08/27 09:49:35;;;;;;;;;;;;;;;21.16;50.72;101108.03;5124650;28;20422;-65
2021/08/27 09:52:04;;;;;;;;;;;;;;;21.50;50.12;101112.00;5127006;28;19984;-66
2021/08/27 09:54:34;;;;;;;;;;;;;;;21.73;49.50;101106.91;5113704;27;20814;-66
2021/08/27 09:57:03;;;;;;;;;;;;;;;21.74;50.25;101111.31;5119123;28;19938;-64
2021/08/27 09:59:32;;;;;;;;;;;;;;;21.04;50.74;101107.88;5117233;28;19988;-64
2021/08/27 10:02:01;;;;;;;;;;;;;;;20.37;49.01;101105.00;5121007;28;19976;-67
2021/08/27 10:04:30;;;;;;;;;;;;;;;20.20;49.56;101106.91;5117004;28;19932;-67
2021/08/27 10:06:58;;;;;;;;;;;;;;;20.26;51.13;101102.97;5121914;27;19931;-67
2021/08/27 10:09:43;;;;;;;;;;;;;;;20.18;50.37;101110.66;5112559;28;19970;-67
2021/08/27 10:12:11;;;;;;;;;;;;;;;20.04;48.14;101114.19;5119354;28;19923;-67
2021/08/27 10:14:39;;;;;;;;;;;;;;;20.31;49.97;101119.66;5118465;28;19923;-67
2021/08/27 10:17:08;;;;;;;;;;;;;;;21.13;48.29;101117.16;5122666;28;19931;-68
2021/08/27 10:19:35;;;;;;;;;;;;;;;21.40;48.66;101127.03;5115676;28;19924;-68
2021/08/27 10:22:04;;;;;;;;;;;;;;;21.48;48.90;101138.13;5113714;28;21340;-67
2021/08/27 10:24:32;;;;;;;;;;;;;;;21.52;48.35;101137.00;5113122;28;19931;-67
2021/08/27 10:27:01;;;;;;;;;;;;;;;20.30;47.76;101133.19;5118843;28;19931;-67
2021/08/27 10:29:29;;;;;;;;;;;;;;;19.87;48.62;101128.63;5117818;28;19935;-67
2021/08/27 10:31:57;;;;;;;;;;;;;;;19.77;50.40;101130.13;5117368;27;19927;-67
2021/08/27 10:34:41;;;;;;;;;;;;;;;20.66;49.12;101121.09;5113804;28;19953;-67
2021/08/27 10:37:09;;;;;;;;;;;;;;;21.33;48.59;101128.44;5106312;28;20418;-67
2021/08/27 10:39:46;;;;;;;;;;;;;;;21.47;48.26;101131.06;5105154;27;20290;-67
2021/08/27 10:42:32;;;;;;;;;;;;;;;21.74;47.77;101130.16;5106842;28;19928;-66
2021/08/27 10:45:02;;;;;;;;;;;;;;;21.10;48.84;101116.50;5111390;28;20473;-67
2021/08/27 10:47:30;;;;;;;;;;;;;;;20.73;49.93;101114.38;5110194;28;20064;-66
2021/08/27 10:49:58;;;;;;;;;;;;;;;20.55;50.55;101124.44;5100620;28;19982;-67
2021/08/27 10:52:28;;;;;;;;;;;;;;;20.28;48.67;101122.56;5108193;28;20058;-67
2021/08/27 10:55:09;;;;;;;;;;;;;;;20.15;50.47;101117.06;5108311;28;19932;-68
2021/08/27 10:58:04;;;;;;;;;;;;;;;20.28;49.18;101121.69;5102897;28;19942;-66
2021/08/27 11:00:39;;;;;;;;;;;;;;;20.03;50.02;101120.53;5105621;28;20078;-66
2021/08/27 11:03:08;;;;;;;;;;;;;;;20.10;50.10;101115.63;5105932;28;19931;-66
2021/08/27 11:05:40;;;;;;;;;;;;;;;20.05;47.58;101114.09;5097040;28;19928;-67
2021/08/27 11:08:10;;;;;;;;;;;;;;;20.07;49.05;101114.00;5102349;28;20031;-66
2021/08/27 11:10:39;;;;;;;;;;;;;;;20.15;50.28;101121.59;5102313;28;19993;-66
2021/08/27 11:13:09;;;;;;;;;;;;;;;20.23;49.73;101125.50;5104635;28;19924;-66
2021/08/27 11:15:38;;;;;;;;;;;;;;;20.15;47.61;101127.81;5103763;28;19976;-66
2021/08/27 11:18:24;;;;;;;;;;;;;;;20.11;47.99;101118.22;5099601;28;21128;-66
2021/08/27 11:20:54;;;;;;;;;;;;;;;20.10;46.96;101126.38;5097106;28;19939;-66
2021/08/27 11:23:22;;;;;;;;;;;;;;;20.10;47.57;101123.69;5106062;28;19932;-66
2021/08/27 11:26:00;;;;;;;;;;;;;;;20.15;48.41;101125.13;5102549;28;19923;-66
2021/08/27 11:28:32;;;;;;;;;;;;;;;20.00;48.31;101137.69;5104356;28;19971;-66
2021/08/27 11:31:08;;;;;;;;;;;;;;;20.04;49.16;101135.66;5102939;28;19968;-66
2021/08/27 11:33:48;;;;;;;;;;;;;;;20.02;49.64;101143.81;5099258;28;19931;-66
2021/08/27 11:36:17;;;;;;;;;;;;;;;20.02;49.78;101140.28;5104308;28;19932;-66
2021/08/27 11:38:50;;;;;;;;;;;;;;;19.86;50.06;101141.19;5102775;28;19953;-66
2021/08/27 11:41:19;;;;;;;;;;;;;;;19.95;48.88;101136.22;5102616;28;19939;-66
2021/08/27 11:43:57;;;;;;;;;;;;;;;19.89;47.58;101143.69;5103932;28;19977;-65
2021/08/27 11:46:27;;;;;;;;;;;;;;;19.98;47.28;101139.59;5100464;28;19924;-66
2021/08/27 11:48:57;;;;;;;;;;;;;;;19.77;47.14;101144.41;5096807;27;19923;-66
2021/08/27 11:51:30;;;;;;;;;;;;;;;19.95;48.84;101144.28;5103446;28;19939;-66
2021/08/27 11:53:58;;;;;;;;;;;;;;;19.93;49.25;101147.06;5102312;28;20002;-67
2021/08/27 11:56:26;;;;;;;;;;;;;;;20.04;49.73;101146.41;5103746;28;19935;-68
2021/08/27 11:58:53;;;;;;;;;;;;;;;19.93;49.49;101141.69;5100787;28;20295;-66
2021/08/27 12:01:25;;;;;;;;;;;;;;;19.98;49.83;101142.28;5098377;28;19931;-66
2021/08/27 12:03:54;;;;;;;;;;;;;;;19.68;47.92;101143.13;5101361;28;19931;-66
2021/08/27 12:06:23;;;;;;;;;;;;;;;19.62;48.05;101142.63;5103256;28;19927;-67
2021/08/27 12:08:51;;;;;;;;;;;;;;;19.63;47.15;101149.72;5099949;28;20485;-67
2021/08/27 12:11:28;;;;;;;;;;;;;;;19.57;47.01;101146.44;5102855;28;19932;-67
2021/08/27 12:13:56;;;;;;;;;;;;;;;19.62;46.24;101156.94;5096995;28;20035;-67
2021/08/27 12:16:24;;;;;;;;;;;;;;;19.74;47.62;101158.88;5095135;28;20539;-67
2021/08/27 12:18:55;;;;;;;;;;;;;;;19.57;47.77;101151.81;5107409;28;19928;-67
2021/08/27 12:21:24;;;;;;;;;;;;;;;19.48;49.01;101149.69;5109284;28;19945;-67
2021/08/27 12:24:01;;;;;;;;;;;;;;;19.56;50.20;101165.34;5104157;28;20144;-66
2021/08/27 12:26:31;;;;;;;;;;;;;;;19.60;49.88;101153.47;5102196;27;19977;-66
2021/08/27 12:29:00;;;;;;;;;;;;;;;19.61;49.90;101160.56;5102410;28;19975;-66
2021/08/27 12:31:36;;;;;;;;;;;;;;;19.66;49.90;101166.53;5098708;28;20016;-67
2021/08/27 12:34:13;;;;;;;;;;;;;;;19.41;48.35;101170.63;5102873;28;19955;-67
2021/08/27 12:36:41;;;;;;;;;;;;;;;19.36;48.26;101170.03;5105439;28;19939;-67
2021/08/27 12:39:09;;;;;;;;;;;;;;;20.34;50.46;101173.22;5101879;28;19931;-66
2021/08/27 12:41:38;;;;;;;;;;;;;;;19.34;51.79;101179.97;5097271;28;19997;-66
2021/08/27 12:44:09;;;;;;;;;;;;;;;19.34;53.46;101190.69;5093817;28;19976;-66
2021/08/27 12:46:37;;;;;;;;;;;;;;;19.49;53.30;101186.28;5103818;28;21477;-66
2021/08/27 12:49:13;;;;;;;;;;;;;;;19.54;54.65;101202.09;5099505;28;20104;-66
2021/08/27 12:51:42;;;;;;;;;;;;;;;19.80;55.81;101197.03;5101805;28;20007;-68
2021/08/27 12:54:10;;;;;;;;;;;;;;;19.08;55.63;101192.19;5109043;28;20058;-66
2021/08/27 12:56:38;;;;;;;;;;;;;;;18.96;54.23;101200.94;5097767;28;20100;-66
2021/08/27 12:59:16;;;;;;;;;;;;;;;18.88;52.99;101199.53;5096394;28;19936;-66
2021/08/27 13:01:45;;;;;;;;;;;;;;;19.00;51.84;101208.72;5104014;28;19996;-66
2021/08/27 13:04:17;;;;;;;;;;;;;;;18.81;52.19;101199.94;5100660;28;19995;-67
2021/08/27 13:06:49;;;;;;;;;;;;;;;18.88;55.79;101206.69;5105695;28;19932;-67
2021/08/27 13:09:19;;;;;;;;;;;;;;;19.13;54.42;101205.34;5100910;28;19963;-66
2021/08/27 13:11:48;;;;;;;;;;;;;;;18.95;53.04;101212.59;5095141;28;20022;-66